Terminal Aerodrome Forecast
Issued by NWS

Home | Current Version | Previous Version | Text Only | Print | Product List | Glossary On
Versions: 1 2 3 4 5 6 7 8 9 10 11 12 13 14 15 16 17 18 19 20 21 22
000
FTUS45 KBOU 160052 AAA
TAFBJC
TAF AMD
KBJC 160052Z 1601/1624 28016G24KT P6SM SCT100 BKN200
     FM160400 29012KT P6SM SCT120 SCT220
     FM160900 32010KT P6SM SCT120 BKN220
     FM161300 01010KT P6SM SCT080 BKN120
     FM162200 04010KT P6SM VCSH SCT040 OVC080=

USA.gov is the U.S. government's official web portal to all federal, state and local government web resources and services.